Time;durP1;ratioP1;P1;durP2;ratioP2;P2;SDS_P1;SDS_P2;PMS_P1;PMS_P2;Temp;Humidity;BMP_temperature;BMP_pressure;BME280_temperature;BME280_humidity;BME280_pressure;Samples;Min_cycle;Max_cycle;Signal;HPM_P1;HPM_P2
2023/12/12 00:02:25;;;;;;;28.73;14.33;;;;;;;6.24;100.00;99147.08;4907093;57;1207732;-82
2023/12/12 00:07:30;;;;;;;22.20;11.57;;;;;;;6.23;100.00;99154.59;4966866;56;1140681;-79
2023/12/12 00:12:36;;;;;;;23.55;13.03;;;;;;;6.22;100.00;99149.83;4986349;56;1140965;-81
2023/12/12 00:17:41;;;;;;;33.78;14.64;;;;;;;6.21;100.00;99156.51;4966705;58;1140871;-82
2023/12/12 00:22:47;;;;;;;22.23;12.93;;;;;;;6.19;100.00;99153.17;4966658;58;1141010;-80
2023/12/12 00:27:52;;;;;;;17.73;10.43;;;;;;;6.21;100.00;99160.45;4985283;58;1140817;-82
2023/12/12 00:32:58;;;;;;;23.15;10.38;;;;;;;6.20;100.00;99162.23;4965928;57;1140777;-80
2023/12/12 00:38:04;;;;;;;14.30;9.73;;;;;;;6.22;100.00;99164.73;4965762;57;1140855;-80
2023/12/12 00:43:09;;;;;;;14.70;7.17;;;;;;;6.22;100.00;99170.83;4986483;56;1138888;-82
2023/12/12 00:48:15;;;;;;;13.00;7.57;;;;;;;6.23;100.00;99173.80;4966852;56;1138816;-80
2023/12/12 00:53:20;;;;;;;8.87;6.63;;;;;;;6.23;100.00;99175.12;4966901;57;1138697;-80
2023/12/12 00:58:26;;;;;;;11.00;7.27;;;;;;;6.27;100.00;99179.62;4987203;58;1136631;-82
2023/12/12 01:03:31;;;;;;;9.20;6.57;;;;;;;6.29;100.00;99185.58;4966301;57;1138564;-81
2023/12/12 01:08:37;;;;;;;8.58;6.65;;;;;;;6.29;100.00;99193.46;4951271;56;1136520;-82
2023/12/12 01:13:42;;;;;;;7.03;5.72;;;;;;;6.31;100.00;99196.80;4884565;58;1136926;-80
2023/12/12 01:18:48;;;;;;;7.77;5.80;;;;;;;6.32;100.00;99202.41;4864483;58;1136890;-83
2023/12/12 01:23:56;;;;;;;6.80;5.00;;;;;;;6.33;100.00;99205.39;4864280;58;1136731;-82
2023/12/12 01:29:02;;;;;;;10.33;6.57;;;;;;;6.33;100.00;99200.97;4861190;58;1136955;-80
2023/12/12 01:34:07;;;;;;;5.63;5.10;;;;;;;6.34;100.00;99211.83;4963500;57;1138917;-84
2023/12/12 01:39:13;;;;;;;5.37;4.70;;;;;;;6.35;100.00;99208.73;4860661;58;1136603;-80
2023/12/12 01:44:19;;;;;;;5.70;5.20;;;;;;;6.36;100.00;99213.03;4865654;58;1136609;-80
2023/12/12 01:49:25;;;;;;;5.80;4.40;;;;;;;6.36;100.00;99223.53;4963371;56;1136688;-82
2023/12/12 01:54:31;;;;;;;4.77;3.57;;;;;;;6.40;100.00;99230.20;4944220;57;1136928;-82
2023/12/12 01:59:38;;;;;;;6.53;4.40;;;;;;;6.41;100.00;99225.80;4944372;57;1137180;-81
2023/12/12 02:04:44;;;;;;;4.23;3.80;;;;;;;6.44;100.00;99225.04;4963415;57;1136839;-83
2023/12/12 02:09:52;;;;;;;4.00;3.60;;;;;;;6.45;100.00;99224.56;4943440;58;1136681;-81
2023/12/12 02:14:57;;;;;;;5.77;4.10;;;;;;;6.45;100.00;99224.56;4944222;58;1136664;-81
2023/12/12 02:20:03;;;;;;;6.97;4.30;;;;;;;6.46;100.00;99236.26;4944256;56;1136868;-80
2023/12/12 02:25:10;;;;;;;5.87;4.90;;;;;;;6.49;100.00;99235.18;4963570;57;1136750;-83
2023/12/12 02:30:17;;;;;;;6.27;5.30;;;;;;;6.49;100.00;99235.18;4944027;58;1136563;-83
2023/12/12 02:35:23;;;;;;;4.30;3.90;;;;;;;6.50;100.00;99236.85;4916448;57;1137057;-82
2023/12/12 02:40:29;;;;;;;4.45;3.92;;;;;;;6.49;100.00;99251.77;4975885;57;1136686;-82
2023/12/12 02:45:35;;;;;;;4.37;3.83;;;;;;;6.50;100.00;99263.12;4947293;58;1136876;-80
2023/12/12 02:50:40;;;;;;;2.80;2.52;;;;;;;6.51;100.00;99268.73;4865625;58;1136578;-82
2023/12/12 02:55:46;;;;;;;3.52;2.90;;;;;;;6.52;100.00;99272.55;4963066;56;1136593;-80
2023/12/12 03:00:51;;;;;;;2.80;2.00;;;;;;;6.53;100.00;99287.83;4944264;56;1136740;-82
2023/12/12 03:05:57;;;;;;;2.37;2.23;;;;;;;6.55;100.00;99295.11;4868362;58;1136682;-81
2023/12/12 03:11:02;;;;;;;1.13;1.13;;;;;;;6.36;100.00;99332.50;4862107;57;1136858;-82
2023/12/12 03:16:08;;;;;;;2.30;1.20;;;;;;;6.36;100.00;99332.50;4963382;56;1134407;-79
2023/12/12 03:21:14;;;;;;;2.00;1.80;;;;;;;6.10;100.00;99360.81;4938654;57;1136804;-81
2023/12/12 03:26:19;;;;;;;1.90;1.80;;;;;;;5.85;100.00;99388.53;4898687;57;1134447;-82
2023/12/12 03:31:25;;;;;;;3.70;2.50;;;;;;;5.64;100.00;99396.25;4880168;58;1134675;-82
2023/12/12 03:36:30;;;;;;;2.20;1.90;;;;;;;5.46;100.00;99415.98;4861524;58;1134914;-81
2023/12/12 03:41:36;;;;;;;2.58;2.00;;;;;;;5.37;100.00;99431.06;4861461;58;1134925;-79
2023/12/12 03:46:41;;;;;;;2.97;2.07;;;;;;;5.34;100.00;99445.73;4952548;57;1136934;-83
2023/12/12 03:51:47;;;;;;;1.50;1.40;;;;;;;5.27;100.00;99456.64;4944970;57;1136643;-81
2023/12/12 03:56:54;;;;;;;1.10;1.10;;;;;;;5.16;100.00;99467.55;4944134;57;1134523;-82
2023/12/12 04:01:59;;;;;;;1.35;1.25;;;;;;;5.03;100.00;99482.48;4944771;57;1142182;-80
2023/12/12 04:07:05;;;;;;;1.57;1.45;;;;;;;4.98;100.00;99503.77;4963701;56;1134768;-80
2023/12/12 04:12:10;;;;;;;1.80;1.10;;;;;;;4.92;100.00;99510.27;4944902;56;1134639;-83
2023/12/12 04:17:16;;;;;;;1.00;1.00;;;;;;;4.81;100.00;99519.36;4943274;56;1134823;-80
2023/12/12 04:22:22;;;;;;;12.60;4.60;;;;;;;4.76;100.00;99535.02;4963172;57;1134556;-79
2023/12/12 04:27:27;;;;;;;6.00;2.93;;;;;;;4.75;100.00;99536.80;4882177;58;1138811;-82
2023/12/12 04:32:34;;;;;;;1.27;1.20;;;;;;;4.72;100.00;99544.05;4865414;59;1136782;-81
2023/12/12 04:37:39;;;;;;;0.87;0.87;;;;;;;4.69;100.00;99549.50;4884585;58;1136903;-83
2023/12/12 04:42:45;;;;;;;1.60;1.27;;;;;;;4.61;100.00;99548.70;4871479;58;1136743;-79
2023/12/12 04:47:50;;;;;;;1.10;0.90;;;;;;;4.59;100.00;99553.20;4923214;58;1136601;-80
2023/12/12 04:52:57;;;;;;;2.12;1.60;;;;;;;4.55;100.00;99555.21;4880915;58;1136630;-81
2023/12/12 04:58:02;;;;;;;4.30;1.30;;;;;;;4.47;100.00;99556.19;4946444;58;1136661;-82
2023/12/12 05:03:08;;;;;;;3.50;1.83;;;;;;;4.44;100.00;99569.95;4942428;57;1136898;-83
2023/12/12 05:08:13;;;;;;;2.17;1.98;;;;;;;4.39;100.00;99573.37;4943762;56;1136823;-80
2023/12/12 05:13:19;;;;;;;2.50;1.70;;;;;;;4.36;100.00;99578.33;4959124;57;1136542;-83
2023/12/12 05:18:24;;;;;;;1.93;1.83;;;;;;;4.39;100.00;99587.77;4966916;58;1136508;-81
2023/12/12 05:23:30;;;;;;;3.40;2.50;;;;;;;4.38;100.00;99596.09;4987592;57;1136488;-82
2023/12/12 05:28:36;;;;;;;2.20;1.90;;;;;;;4.36;100.00;99603.67;4990610;57;1134751;-81
2023/12/12 05:33:41;;;;;;;4.80;2.30;;;;;;;4.29;100.00;99601.08;4973708;57;1134899;-80
2023/12/12 05:38:47;;;;;;;2.40;2.15;;;;;;;4.30;100.00;99607.52;4968526;58;1134675;-79
2023/12/12 05:43:52;;;;;;;3.30;2.97;;;;;;;4.29;100.00;99620.23;4993438;57;1134728;-81
2023/12/12 05:48:58;;;;;;;3.27;3.00;;;;;;;4.31;100.00;99631.92;4968212;58;1137067;-70
2023/12/12 05:54:03;;;;;;;4.87;3.35;;;;;;;4.31;100.00;99635.84;5011886;57;1134643;-72
2023/12/12 05:59:09;;;;;;;8.53;4.40;;;;;;;4.33;100.00;99640.05;5002896;57;1136727;-70
2023/12/12 06:04:15;;;;;;;4.33;3.50;;;;;;;4.39;100.00;99638.81;4913355;57;1136817;-70
2023/12/12 06:09:20;;;;;;;4.63;2.93;;;;;;;4.41;100.00;99648.25;4947404;57;1136633;-70
2023/12/12 06:14:26;;;;;;;3.60;3.40;;;;;;;4.46;100.00;99663.63;4968366;57;1136556;-71
2023/12/12 06:19:32;;;;;;;3.80;3.35;;;;;;;4.46;100.00;99671.48;5028332;56;1136704;-70
2023/12/12 06:24:37;;;;;;;4.12;3.17;;;;;;;4.46;100.00;99673.63;5032708;56;1136933;-71
2023/12/12 06:29:43;;;;;;;4.35;3.40;;;;;;;4.46;100.00;99679.34;5044932;57;1136761;-71
2023/12/12 06:34:48;;;;;;;4.60;3.87;;;;;;;4.40;100.00;99684.99;5008516;56;1134809;-70
2023/12/12 06:39:54;;;;;;;5.30;3.57;;;;;;;4.39;100.00;99695.94;5025824;56;1134673;-71
2023/12/12 06:44:59;;;;;;;10.93;3.98;;;;;;;4.38;100.00;99697.34;4989656;55;1134971;-72
2023/12/12 06:50:06;;;;;;;8.37;4.17;;;;;;;4.39;100.00;99706.88;5042238;56;1138889;-70
2023/12/12 06:55:12;;;;;;;6.07;4.37;;;;;;;4.39;100.00;99708.19;5017681;56;1134835;-71
2023/12/12 07:00:19;;;;;;;5.70;4.50;;;;;;;4.35;100.00;99708.84;5017750;55;1134748;-71
2023/12/12 07:05:25;;;;;;;10.13;4.90;;;;;;;4.36;100.00;99713.14;5032026;57;1136700;-70
2023/12/12 07:10:31;;;;;;;7.47;4.33;;;;;;;4.34;100.00;99717.63;5027038;56;1136726;-70
2023/12/12 07:15:37;;;;;;;6.57;4.00;;;;;;;4.32;100.00;99726.05;5025604;56;1134509;-71
2023/12/12 07:20:44;;;;;;;5.00;3.83;;;;;;;4.26;100.00;99729.55;5039981;56;1134476;-71
2023/12/12 07:25:49;;;;;;;9.90;3.47;;;;;;;4.23;100.00;99736.66;4985106;57;1134814;-70
2023/12/12 07:30:55;;;;;;;3.60;3.10;;;;;;;4.21;100.00;99749.00;5018462;56;1134675;-70
2023/12/12 07:36:00;;;;;;;3.20;2.90;;;;;;;4.17;100.00;99746.66;4949255;57;1134865;-70
2023/12/12 07:41:06;;;;;;;6.43;3.43;;;;;;;4.16;100.00;99763.30;4982167;56;1134589;-71
2023/12/12 07:46:12;;;;;;;6.47;3.80;;;;;;;4.13;100.00;99764.33;5022269;56;1134474;-71
2023/12/12 07:51:17;;;;;;;6.53;4.03;;;;;;;4.13;100.00;99770.88;5041693;56;1134535;-69
2023/12/12 07:56:23;;;;;;;10.10;4.73;;;;;;;4.12;100.00;99774.92;5133760;56;1134745;-69
2023/12/12 08:01:29;;;;;;;15.37;5.23;;;;;;;4.14;100.00;99780.41;5083311;55;1138818;-70
2023/12/12 08:06:35;;;;;;;5.63;4.10;;;;;;;4.12;100.00;99796.70;5037375;55;1136672;-72
2023/12/12 08:11:41;;;;;;;5.70;3.67;;;;;;;4.10;100.00;99801.18;5068212;56;1134655;-74
2023/12/12 08:16:47;;;;;;;10.90;4.52;;;;;;;4.10;100.00;99809.03;5112569;56;1134485;-76
2023/12/12 08:21:52;;;;;;;5.53;4.20;;;;;;;4.11;100.00;99797.63;5082644;55;1136739;-78
2023/12/12 08:26:58;;;;;;;7.50;5.37;;;;;;;4.07;100.00;99801.83;4973512;55;1134921;-80
2023/12/12 08:32:04;;;;;;;7.83;5.67;;;;;;;4.03;100.00;99807.72;5039001;56;1134804;-80
2023/12/12 08:37:09;;;;;;;9.87;6.43;;;;;;;4.02;100.00;99809.12;5047891;55;1134730;-81
2023/12/12 08:42:16;;;;;;;12.58;7.40;;;;;;;4.02;100.00;99812.57;5005695;55;1134724;-82
2023/12/12 08:47:21;;;;;;;16.23;8.53;;;;;;;4.01;100.00;99810.05;5068394;56;1136609;-83
2023/12/12 08:52:27;;;;;;;13.00;7.77;;;;;;;4.02;100.00;99826.13;5048075;56;1136693;-79
2023/12/12 08:57:34;;;;;;;14.63;8.73;;;;;;;4.05;100.00;99833.79;5047584;56;1136771;-79
2023/12/12 09:02:40;;;;;;;12.27;7.87;;;;;;;4.05;100.00;99832.48;5067053;56;1136740;-79
2023/12/12 09:07:46;;;;;;;12.30;8.20;;;;;;;4.04;100.00;99829.48;5048696;56;1136547;-78
2023/12/12 09:12:51;;;;;;;13.78;7.72;;;;;;;4.03;100.00;99835.19;5039621;56;1136588;-78
2023/12/12 09:17:57;;;;;;;14.57;8.70;;;;;;;4.01;100.00;99844.91;5053722;55;1136777;-79
2023/12/12 09:23:02;;;;;;;12.40;6.75;;;;;;;3.99;100.00;99846.77;5001115;56;1136751;-79
2023/12/12 09:28:08;;;;;;;15.20;8.23;;;;;;;4.01;100.00;99847.98;5048226;56;1136914;-79
2023/12/12 09:33:14;;;;;;;16.02;7.47;;;;;;;4.00;100.00;99849.76;5068315;56;1136986;-79
2023/12/12 09:38:19;;;;;;;11.70;7.63;;;;;;;4.04;100.00;99856.96;5047872;56;1136689;-79
2023/12/12 09:43:26;;;;;;;18.07;9.27;;;;;;;4.05;100.00;99851.64;5048642;56;1136634;-79
2023/12/12 09:48:35;;;;;;;13.37;8.10;;;;;;;4.06;100.00;99847.25;5068264;56;1136766;-79
2023/12/12 09:53:46;;;;;;;12.67;7.70;;;;;;;4.10;100.00;99848.28;5048745;56;1136775;-78
2023/12/12 09:58:50;;;;;;;12.13;7.17;;;;;;;4.14;100.00;99841.90;5047611;56;1136885;-81
2023/12/12 10:03:57;;;;;;;10.00;6.20;;;;;;;4.21;100.00;99839.76;5013557;57;1136717;-77
2023/12/12 10:09:02;;;;;;;13.80;6.30;;;;;;;4.20;100.00;99827.14;5031107;56;1136528;-77
2023/12/12 10:14:10;;;;;;;10.87;5.97;;;;;;;4.27;100.00;99834.16;5047848;56;1136581;-76
2023/12/12 10:19:16;;;;;;;10.57;6.23;;;;;;;4.34;100.00;99824.96;5067467;56;1136974;-77
2023/12/12 10:24:28;;;;;;;8.80;5.73;;;;;;;4.36;100.00;99829.64;5049345;55;1136575;-78
2023/12/12 10:29:34;;;;;;;9.00;5.90;;;;;;;4.41;100.00;99826.27;5048313;56;1134385;-80
2023/12/12 10:34:43;;;;;;;10.67;5.50;;;;;;;4.45;100.00;99827.73;5067603;56;1134500;-80
2023/12/12 10:39:49;;;;;;;8.78;5.40;;;;;;;4.47;100.00;99828.48;5048168;56;1136888;-80
2023/12/12 10:44:57;;;;;;;11.75;5.83;;;;;;;4.51;100.00;99833.91;5045179;57;1136818;-78
2023/12/12 10:50:06;;;;;;;15.90;6.75;;;;;;;4.56;100.00;99831.84;5044336;57;1138966;-77
2023/12/12 10:55:14;;;;;;;19.23;7.93;;;;;;;4.55;100.00;99830.16;5063767;57;1136811;-79
2023/12/12 11:00:20;;;;;;;23.10;10.43;;;;;;;4.57;100.00;99819.13;5000243;55;1138870;-78
2023/12/12 11:05:27;;;;;;;19.47;9.00;;;;;;;4.60;100.00;99824.14;5009309;55;1140738;-80
2023/12/12 11:10:34;;;;;;;13.78;6.87;;;;;;;4.61;100.00;99819.73;5015379;57;1138803;-80
2023/12/12 11:15:41;;;;;;;31.37;14.13;;;;;;;4.64;100.00;99831.34;4977686;56;1138875;-78
2023/12/12 11:20:47;;;;;;;38.50;14.68;;;;;;;4.65;100.00;99830.87;4968312;56;1140743;-79
2023/12/12 11:25:52;;;;;;;7.25;4.92;;;;;;;4.69;100.00;99832.36;5018524;56;1140845;-79
2023/12/12 11:30:58;;;;;;;10.87;6.30;;;;;;;4.68;100.00;99850.32;5023792;56;1136903;-78
2023/12/12 11:36:04;;;;;;;10.03;5.45;;;;;;;4.66;100.00;99843.87;5025897;56;1138594;-79
2023/12/12 11:41:17;;;;;;;9.20;5.40;;;;;;;4.66;100.00;99848.27;5093370;56;1138992;-78
2023/12/12 11:46:25;;;;;;;18.35;10.43;;;;;;;4.67;100.00;99859.11;5094848;56;1136665;-78
2023/12/12 11:51:46;;;;;;;13.07;6.27;;;;;;;4.68;100.00;99858.17;5033786;56;1140804;-80
2023/12/12 11:57:00;;;;;;;10.57;6.17;;;;;;;4.70;100.00;99854.53;5046808;56;1138623;-79
2023/12/12 12:02:07;;;;;;;8.83;5.73;;;;;;;4.75;100.00;99845.89;5042425;56;1138667;-79
2023/12/12 12:07:12;;;;;;;7.00;5.27;;;;;;;4.73;100.00;99846.48;5048921;57;1136686;-79
2023/12/12 12:12:18;;;;;;;7.03;5.23;;;;;;;4.74;100.00;99840.27;5066076;56;1136635;-78
2023/12/12 12:17:23;;;;;;;5.13;3.97;;;;;;;4.77;100.00;99845.32;5048358;56;1136730;-77
2023/12/12 12:22:30;;;;;;;6.73;3.70;;;;;;;4.81;100.00;99846.81;5048831;57;1136558;-79
2023/12/12 12:27:49;;;;;;;5.20;3.87;;;;;;;4.82;100.00;99859.44;5055941;56;1136721;-79
2023/12/12 12:33:06;;;;;;;6.87;3.63;;;;;;;4.79;100.00;99855.70;5048963;56;1136732;-81
2023/12/12 12:38:31;;;;;;;9.93;5.03;;;;;;;4.80;100.00;99848.22;5047427;56;1136642;-79
2023/12/12 12:43:37;;;;;;;8.23;5.27;;;;;;;4.81;100.00;99852.05;5048136;56;1136667;-80
2023/12/12 12:48:44;;;;;;;7.57;4.73;;;;;;;4.81;100.00;99853.83;5038678;56;1226124;-79
2023/12/12 12:53:50;;;;;;;6.35;4.58;;;;;;;4.81;100.00;99852.05;5047808;56;1136912;-80
2023/12/12 12:58:55;;;;;;;7.80;4.80;;;;;;;4.84;100.00;99855.79;5048429;56;1136693;-80
2023/12/12 13:04:01;;;;;;;9.65;5.80;;;;;;;4.88;100.00;99850.73;5048738;56;1136775;-77
2023/12/12 13:09:17;;;;;;;9.87;5.97;;;;;;;4.96;100.00;99854.14;5067851;56;1136432;-79
2023/12/12 13:14:14;;;;;;;11.57;5.67;;;;;;;5.00;100.00;99854.80;5045484;56;1136846;-78
2023/12/12 13:19:20;;;;;;;8.83;5.90;;;;;;;5.09;100.00;99847.63;5048306;56;1138625;-78
2023/12/12 13:24:25;;;;;;;11.13;7.17;;;;;;;5.12;100.00;99856.14;5067946;55;1134723;-78
2023/12/12 13:29:31;;;;;;;12.70;7.50;;;;;;;5.08;100.00;99849.88;5047269;57;1136780;-80
2023/12/12 13:34:36;;;;;;;13.65;8.03;;;;;;;5.05;100.00;99852.70;5048710;56;1136712;-81
2023/12/12 13:39:42;;;;;;;15.13;9.70;;;;;;;5.05;100.00;99852.22;5048918;57;1138899;-80
2023/12/12 13:44:48;;;;;;;17.50;9.78;;;;;;;5.10;100.00;99851.94;5048959;56;1138618;-80
2023/12/12 13:49:53;;;;;;;14.77;9.13;;;;;;;5.14;100.00;99851.64;5056535;56;1138762;-79
2023/12/12 13:54:59;;;;;;;14.25;9.68;;;;;;;5.21;100.00;99852.06;5049312;56;1138910;-73
2023/12/12 14:00:08;;;;;;;19.07;12.60;;;;;;;5.26;100.00;99844.27;5061858;56;1139014;-72
2023/12/12 14:05:14;;;;;;;19.63;9.30;;;;;;;5.21;100.00;99842.88;5048408;56;1138871;-72
2023/12/12 14:10:20;;;;;;;11.83;8.70;;;;;;;5.13;100.00;99851.27;5048554;56;1137054;-72
2023/12/12 14:15:25;;;;;;;21.00;10.93;;;;;;;5.05;100.00;99847.45;5067710;56;1139112;-72
2023/12/12 14:20:31;;;;;;;15.73;8.40;;;;;;;5.04;100.00;99849.73;5034151;56;1140961;-72
2023/12/12 14:25:39;;;;;;;7.20;5.27;;;;;;;5.00;100.00;99853.02;5023539;56;1138858;-70
2023/12/12 14:30:46;;;;;;;12.43;8.23;;;;;;;4.96;100.00;99856.77;5076285;56;1136654;-71
2023/12/12 14:35:51;;;;;;;9.88;6.90;;;;;;;4.92;100.00;99863.98;5051102;56;1138898;-71
2023/12/12 14:40:57;;;;;;;12.83;7.40;;;;;;;4.91;100.00;99866.70;5095226;56;1136550;-81
2023/12/12 14:46:02;;;;;;;17.20;9.17;;;;;;;4.86;100.00;99860.94;5112591;56;1139649;-80
2023/12/12 14:51:09;;;;;;;20.90;10.67;;;;;;;4.83;100.00;99851.95;5067309;56;1138722;-81
2023/12/12 14:56:15;;;;;;;32.83;14.77;;;;;;;4.79;100.00;99853.09;5031354;56;1140913;-83
2023/12/12 15:01:20;;;;;;;32.67;15.77;;;;;;;4.80;100.00;99852.14;4941152;57;1140795;-81
2023/12/12 15:06:27;;;;;;;25.83;13.87;;;;;;;4.81;100.00;99852.52;4977682;57;1140856;-80
2023/12/12 15:11:32;;;;;;;48.93;24.47;;;;;;;4.84;100.00;99862.34;4966447;57;1140898;-81
2023/12/12 15:16:38;;;;;;;101.78;49.90;;;;;;;4.84;100.00;99862.34;4966496;57;1140873;-82
2023/12/12 15:21:44;;;;;;;97.70;54.50;;;;;;;4.86;100.00;99857.00;4905985;58;1142951;-82
2023/12/12 15:26:50;;;;;;;26.73;14.18;;;;;;;4.84;100.00;99851.02;4887385;58;1140857;-84
2023/12/12 15:31:55;;;;;;;32.00;15.83;;;;;;;4.80;100.00;99854.77;4965843;57;1140894;-83
2023/12/12 15:37:01;;;;;;;33.05;17.35;;;;;;;4.80;100.00;99845.12;4932014;58;1141215;-84
2023/12/12 15:42:08;;;;;;;88.83;38.50;;;;;;;4.88;100.00;99854.66;4885452;58;1141127;-82
2023/12/12 15:47:13;;;;;;;136.87;73.87;;;;;;;4.88;100.00;99854.66;4855600;58;1141145;-85
2023/12/12 15:52:19;;;;;;;91.73;45.80;;;;;;;4.87;100.00;99850.83;4940148;58;1143058;-82
2023/12/12 15:57:24;;;;;;;402.03;105.67;;;;;;;4.84;100.00;99848.40;4980810;57;1138907;-83
2023/12/12 16:02:30;;;;;;;183.50;54.40;;;;;;;4.77;100.00;99857.58;4908520;57;1142988;-81
2023/12/12 16:07:36;;;;;;;58.97;20.37;;;;;;;4.75;100.00;99848.97;4921518;58;1143008;-81
2023/12/12 16:12:41;;;;;;;36.17;15.27;;;;;;;4.83;100.00;99846.72;4888694;58;1140715;-84
2023/12/12 16:17:47;;;;;;;124.03;49.67;;;;;;;4.93;100.00;99847.79;4941418;57;1140894;-80
2023/12/12 16:22:53;;;;;;;127.57;41.37;;;;;;;4.95;100.00;99852.00;4864057;59;1143353;-81
2023/12/12 16:28:01;;;;;;;96.06;30.42;;;;;;;4.97;100.00;99847.97;4958855;57;1143049;-82
2023/12/12 16:33:11;;;;;;;45.70;19.07;;;;;;;4.92;100.00;99844.33;4969271;58;1138550;-82
2023/12/12 16:38:21;;;;;;;30.70;12.87;;;;;;;4.88;100.00;99836.32;4941939;58;1138954;-81
2023/12/12 16:43:26;;;;;;;25.23;12.77;;;;;;;4.82;100.00;99837.17;4864122;59;1140910;-84
2023/12/12 16:48:33;;;;;;;18.63;11.00;;;;;;;4.78;100.00;99826.52;4956469;57;1140843;-82
2023/12/12 16:53:39;;;;;;;20.27;11.23;;;;;;;4.84;100.00;99828.75;4845741;58;1140713;-82
2023/12/12 16:58:45;;;;;;;24.40;12.63;;;;;;;4.83;100.00;99821.36;4951936;56;1141026;-85
2023/12/12 17:03:51;;;;;;;29.57;15.72;;;;;;;4.87;100.00;99826.78;4913293;57;1140616;-82
2023/12/12 17:08:56;;;;;;;21.95;13.65;;;;;;;4.86;100.00;99834.73;4897665;57;1138598;-82
2023/12/12 17:14:02;;;;;;;30.83;15.07;;;;;;;4.86;100.00;99840.81;4912147;57;1138507;-83
2023/12/12 17:19:07;;;;;;;40.55;19.75;;;;;;;4.87;100.00;99833.80;4930192;57;1141085;-82
2023/12/12 17:24:13;;;;;;;60.20;30.30;;;;;;;4.87;100.00;99840.34;4930956;57;1141202;-85
2023/12/12 17:29:20;;;;;;;82.57;34.83;;;;;;;4.86;100.00;99836.89;4932897;56;1140843;-86
2023/12/12 17:34:25;;;;;;;135.33;61.73;;;;;;;4.81;100.00;99826.33;4941504;56;1138902;-80
2023/12/12 17:39:31;;;;;;;356.40;142.57;;;;;;;4.81;100.00;99836.34;5005508;57;1140887;-82
2023/12/12 17:44:36;;;;;;;395.30;152.80;;;;;;;4.82;100.00;99832.77;5028173;57;1142877;-83
2023/12/12 17:49:43;;;;;;;346.33;135.63;;;;;;;4.80;100.00;99833.81;4996877;57;1145076;-82
2023/12/12 17:54:48;;;;;;;196.97;79.93;;;;;;;4.81;100.00;99833.72;5000769;57;1145089;-81
2023/12/12 17:59:54;;;;;;;197.80;89.03;;;;;;;4.84;100.00;99836.14;5028295;57;1142963;-81
2023/12/12 18:04:59;;;;;;;135.20;58.68;;;;;;;4.71;100.00;99817.39;4980646;57;1143280;-84
2023/12/12 18:10:07;;;;;;;230.07;100.12;;;;;;;4.71;100.00;99817.39;4965474;57;1141113;-81
2023/12/12 18:15:12;;;;;;;291.07;121.00;;;;;;;4.68;100.00;99826.75;4986775;57;1142917;-83
2023/12/12 18:20:19;;;;;;;262.87;111.63;;;;;;;4.66;100.00;99816.37;4959979;57;1143060;-81
2023/12/12 18:25:25;;;;;;;241.37;108.60;;;;;;;4.65;100.00;99817.30;4957694;57;1144683;-82
2023/12/12 18:30:31;;;;;;;210.83;98.83;;;;;;;4.67;100.00;99802.34;4931769;57;1145076;-81
2023/12/12 18:35:37;;;;;;;108.30;54.97;;;;;;;4.68;100.00;99804.48;4912897;57;1143191;-83
2023/12/12 18:40:46;;;;;;;75.57;40.23;;;;;;;4.69;100.00;99802.23;4887857;57;1142977;-83
2023/12/12 18:45:52;;;;;;;76.12;38.05;;;;;;;4.62;100.00;99807.48;4933035;57;1140858;-83
2023/12/12 18:50:58;;;;;;;67.78;35.23;;;;;;;4.54;100.00;99807.53;4966736;57;1138608;-80
2023/12/12 18:56:06;;;;;;;51.58;25.10;;;;;;;4.50;100.00;99806.50;4912206;57;1138627;-82
2023/12/12 19:01:15;;;;;;;100.53;52.00;;;;;;;4.48;100.00;99797.91;5059368;56;1139186;-82
2023/12/12 19:06:23;;;;;;;70.73;37.27;;;;;;;4.46;100.00;99801.08;5063355;56;1143055;-82
2023/12/12 19:11:36;;;;;;;57.63;31.77;;;;;;;4.46;100.00;99800.61;5066325;56;1140860;-84
2023/12/12 19:16:50;;;;;;;50.93;26.63;;;;;;;4.50;100.00;99790.80;5042456;55;1140885;-83
2023/12/12 19:21:56;;;;;;;82.88;42.78;;;;;;;4.52;100.00;99788.45;5067596;56;1140874;-83
2023/12/12 19:27:04;;;;;;;51.53;27.15;;;;;;;4.51;100.00;99775.45;5047575;56;1140927;-83
2023/12/12 19:32:27;;;;;;;76.00;34.80;;;;;;;4.43;100.00;99777.73;5179308;57;21242;-83
2023/12/12 19:37:32;;;;;;;233.00;94.97;;;;;;;4.37;100.00;99776.34;5037532;57;1134768;-84
2023/12/12 19:42:38;;;;;;;80.43;42.47;;;;;;;4.33;100.00;99776.16;4923666;57;1143334;-83
2023/12/12 20:05:58;;;;;;;55.90;28.47;;;;;;;4.39;100.00;99756.61;4877959;58;1138338;-82
2023/12/12 20:11:04;;;;;;;39.80;19.25;;;;;;;4.25;100.00;99754.88;4772781;58;1138826;-83
2023/12/12 20:27:37;;;;;;;78.97;37.57;;;;;;;4.07;100.00;99756.05;4968719;57;1136944;-80
2023/12/12 20:32:46;;;;;;;78.80;34.43;;;;;;;4.09;100.00;99762.02;5037896;57;1141023;-81
2023/12/12 20:37:52;;;;;;;71.23;32.40;;;;;;;4.14;100.00;99769.09;5088286;56;1140991;-80
2023/12/12 20:43:11;;;;;;;;;;;;;;;;;;;;;
2023/12/12 20:48:10;;;;;;;;;;;;;;;4.22;100.00;99753.77;5089600;56;1140472;-80
2023/12/12 20:53:21;;;;;;;57.07;27.60;;;;;;;4.26;100.00;99751.33;5051958;56;972103;-79
2023/12/12 20:58:27;;;;;;;40.47;20.87;;;;;;;4.24;100.00;99744.88;4971620;58;1136808;-79
2023/12/12 21:03:32;;;;;;;32.63;19.23;;;;;;;4.21;100.00;99746.84;5045430;56;1138966;-80
2023/12/12 21:08:38;;;;;;;42.03;20.53;;;;;;;4.21;100.00;99744.23;4995273;58;1140956;-80
2023/12/12 21:13:43;;;;;;;68.83;33.93;;;;;;;4.17;100.00;99742.73;4975700;56;1140808;-80
2023/12/12 21:18:50;;;;;;;41.88;19.95;;;;;;;4.16;100.00;99745.82;4958496;57;1141117;-81
2023/12/12 21:23:56;;;;;;;57.15;24.07;;;;;;;4.13;100.00;99740.78;4913538;58;1141185;-80
2023/12/12 21:29:01;;;;;;;46.20;23.42;;;;;;;4.07;100.00;99749.50;5005629;57;1138903;-81
2023/12/12 21:34:10;;;;;;;29.70;17.57;;;;;;;4.06;100.00;99747.81;4952880;57;1138843;-81
2023/12/12 21:39:15;;;;;;;45.15;20.68;;;;;;;4.03;100.00;99758.00;4995336;57;1140980;-82
2023/12/12 21:44:21;;;;;;;73.70;30.50;;;;;;;4.03;100.00;99756.70;4802448;58;1140952;-81
2023/12/12 21:49:27;;;;;;;60.87;26.93;;;;;;;4.04;100.00;99755.77;4858693;58;1140657;-81
2023/12/12 21:54:33;;;;;;;50.83;23.87;;;;;;;4.05;100.00;99749.59;5029805;57;1140922;-82
2023/12/12 21:59:38;;;;;;;59.40;28.37;;;;;;;4.05;100.00;99746.14;5047746;57;1140998;-82
2023/12/12 22:04:44;;;;;;;48.33;21.37;;;;;;;4.04;100.00;99749.69;5047315;57;1140624;-82
2023/12/12 22:09:51;;;;;;;67.18;30.32;;;;;;;4.06;100.00;99742.59;5085731;57;1140891;-82
2023/12/12 22:14:57;;;;;;;52.98;24.10;;;;;;;3.95;100.00;99714.50;5047278;56;1140740;-82
2023/12/12 22:20:03;;;;;;;50.03;26.60;;;;;;;4.13;100.00;99737.32;5047651;57;1140915;-81
2023/12/12 22:25:09;;;;;;;68.47;33.25;;;;;;;4.14;100.00;99740.31;4944595;57;1141108;-81
2023/12/12 22:30:15;;;;;;;62.30;31.17;;;;;;;4.15;100.00;99743.30;4906678;59;1140927;-81
2023/12/12 22:35:21;;;;;;;51.27;26.57;;;;;;;4.11;100.00;99737.91;4932052;58;1139009;-82
2023/12/12 22:40:27;;;;;;;44.57;22.63;;;;;;;4.09;100.00;99740.63;5054529;56;1139024;-81
2023/12/12 22:45:32;;;;;;;37.60;19.07;;;;;;;4.08;100.00;99731.09;5148437;56;1138711;-81
2023/12/12 22:50:39;;;;;;;39.37;21.63;;;;;;;4.08;100.00;99723.70;5066713;56;1141016;-81
2023/12/12 22:55:44;;;;;;;45.77;23.77;;;;;;;4.10;100.00;99716.14;5019923;57;1140939;-82
2023/12/12 23:00:51;;;;;;;47.47;23.57;;;;;;;4.10;100.00;99707.45;4992101;58;1140780;-82
2023/12/12 23:05:57;;;;;;;45.40;23.10;;;;;;;4.11;100.00;99705.20;4971635;57;1140859;-81
2023/12/12 23:11:03;;;;;;;47.38;23.27;;;;;;;4.09;100.00;99695.30;5012461;57;1140880;-82
2023/12/12 23:16:09;;;;;;;48.35;25.05;;;;;;;4.08;100.00;99700.16;5093260;56;1141044;-81
2023/12/12 23:21:16;;;;;;;68.03;29.17;;;;;;;4.09;100.00;99699.23;5156628;56;1138701;-81
2023/12/12 23:26:22;;;;;;;66.13;29.97;;;;;;;4.05;100.00;99699.04;5070093;56;1138894;-81
2023/12/12 23:31:27;;;;;;;51.02;24.80;;;;;;;4.03;100.00;99698.30;5023312;57;1138671;-81
2023/12/12 23:36:33;;;;;;;51.13;25.40;;;;;;;4.02;100.00;99688.30;5103587;56;1140852;-81
2023/12/12 23:41:45;;;;;;;54.37;28.50;;;;;;;4.05;100.00;99684.19;5058162;56;1140899;-82